createdAt,value
2019-03-22T00:02:04.974Z,28.77
2019-03-22T00:04:33.864Z,30.03
2019-03-22T00:07:02.881Z,29.47
2019-03-22T00:09:31.802Z,30.30
2019-03-22T00:12:00.767Z,30.27
2019-03-22T00:14:29.690Z,29.93
2019-03-22T00:16:58.976Z,30.87
2019-03-22T00:19:27.845Z,29.40
2019-03-22T00:21:57.744Z,30.40
2019-03-22T00:24:26.739Z,28.27
2019-03-22T00:26:55.633Z,30.10
2019-03-22T00:29:25.022Z,30.47
2019-03-22T00:31:54.102Z,29.10
2019-03-22T00:34:23.199Z,30.37
2019-03-22T00:36:52.373Z,30.30
2019-03-22T00:39:21.423Z,28.67
2019-03-22T00:41:50.391Z,28.50
2019-03-22T00:44:19.371Z,29.10
2019-03-22T00:46:48.421Z,29.50
2019-03-22T00:49:17.450Z,27.27
2019-03-22T00:51:46.372Z,29.40
2019-03-22T00:54:15.314Z,28.93
2019-03-22T00:56:44.252Z,28.07
2019-03-22T00:59:13.388Z,29.17
2019-03-22T01:01:42.765Z,28.93
2019-03-22T01:04:11.754Z,29.47
2019-03-22T01:06:40.948Z,28.20
2019-03-22T01:09:10.306Z,28.70
2019-03-22T01:11:41.109Z,28.63
2019-03-22T01:14:10.045Z,30.47
2019-03-22T01:16:38.966Z,31.93
2019-03-22T01:19:08.688Z,31.27
2019-03-22T01:21:37.603Z,34.13
2019-03-22T01:24:06.645Z,32.37
2019-03-22T01:26:35.553Z,32.90
2019-03-22T01:29:05.527Z,32.83
2019-03-22T01:31:34.443Z,32.37
2019-03-22T01:34:03.465Z,31.40
2019-03-22T01:36:32.479Z,30.20
2019-03-22T01:39:01.331Z,31.27
2019-03-22T01:41:30.258Z,31.13
2019-03-22T01:43:59.138Z,29.80
2019-03-22T01:46:28.234Z,31.43
2019-03-22T01:48:57.184Z,31.37
2019-03-22T01:51:26.202Z,32.03
2019-03-22T01:53:55.593Z,31.27
2019-03-22T01:56:24.647Z,31.67
2019-03-22T01:58:53.528Z,31.47
2019-03-22T02:01:22.826Z,31.47
2019-03-22T02:03:52.089Z,31.87
2019-03-22T02:06:21.007Z,32.47
2019-03-22T02:08:50.583Z,32.20
2019-03-22T02:11:19.507Z,31.20
2019-03-22T02:13:48.455Z,32.30
2019-03-22T02:16:17.331Z,32.30
2019-03-22T02:18:46.530Z,34.33
2019-03-22T02:21:15.389Z,34.33
2019-03-22T02:23:44.484Z,36.23
2019-03-22T02:26:13.519Z,34.50
2019-03-22T02:28:42.841Z,36.27
2019-03-22T02:31:11.679Z,36.13
2019-03-22T02:33:40.607Z,36.77
2019-03-22T02:36:10.334Z,35.50
2019-03-22T02:38:39.403Z,38.67
2019-03-22T02:41:08.663Z,36.03
2019-03-22T02:43:37.642Z,36.73
2019-03-22T02:46:06.529Z,36.37
2019-03-22T02:48:35.766Z,35.80
2019-03-22T02:51:04.711Z,36.83
2019-03-22T02:53:33.755Z,37.63
2019-03-22T02:56:02.736Z,36.23
2019-03-22T02:58:32.348Z,36.37
2019-03-22T03:01:01.494Z,37.23
2019-03-22T03:03:30.559Z,36.53
2019-03-22T03:05:59.469Z,36.77
2019-03-22T03:08:28.407Z,35.67
2019-03-22T03:10:57.359Z,33.43
2019-03-22T03:13:26.362Z,36.03
2019-03-22T03:15:55.364Z,35.77
2019-03-22T03:18:24.496Z,36.23
2019-03-22T03:20:53.522Z,36.73
2019-03-22T03:23:22.809Z,36.53
2019-03-22T03:25:51.725Z,36.43
2019-03-22T03:28:35.641Z,34.57
2019-03-22T03:30:51.656Z,38.37
2019-03-22T03:33:20.637Z,38.70
2019-03-22T03:35:49.610Z,34.50
2019-03-22T03:38:18.483Z,37.17
2019-03-22T03:40:47.426Z,35.67
2019-03-22T03:43:16.323Z,36.90
2019-03-22T03:45:45.759Z,35.27
2019-03-22T03:48:14.677Z,37.53
2019-03-22T03:50:43.664Z,38.33
2019-03-22T03:53:12.684Z,36.70
2019-03-22T03:55:41.597Z,35.30
2019-03-22T03:58:10.567Z,36.50
2019-03-22T04:00:39.482Z,36.57
2019-03-22T04:03:08.787Z,36.57
2019-03-22T04:05:37.712Z,35.03
2019-03-22T04:08:06.644Z,35.67
2019-03-22T04:10:35.541Z,34.57
2019-03-22T04:13:04.649Z,35.87
2019-03-22T04:15:33.657Z,34.47
2019-03-22T04:18:02.638Z,36.20
2019-03-22T04:20:31.782Z,36.17
2019-03-22T04:23:00.981Z,36.73
2019-03-22T04:25:30.306Z,36.13
2019-03-22T04:27:59.718Z,34.13
2019-03-22T04:30:28.679Z,36.40
2019-03-22T04:32:58.505Z,35.57
2019-03-22T04:35:27.429Z,36.43
2019-03-22T04:37:56.371Z,37.33
2019-03-22T04:40:26.962Z,37.80
2019-03-22T04:42:56.125Z,36.20
2019-03-22T04:45:29.227Z,38.23
2019-03-22T04:48:13.665Z,37.83
2019-03-22T04:50:45.991Z,38.50
2019-03-22T04:53:21.884Z,37.50
2019-03-22T04:55:57.610Z,38.93
2019-03-22T04:58:28.741Z,38.10
2019-03-22T05:00:59.761Z,38.87
2019-03-22T05:03:31.144Z,35.17
2019-03-22T05:06:02.360Z,39.10
2019-03-22T05:08:37.290Z,38.33
2019-03-22T05:11:10.938Z,38.37
2019-03-22T05:13:44.403Z,39.50
2019-03-22T05:16:16.567Z,39.87
2019-03-22T05:18:49.913Z,39.83
2019-03-22T05:21:25.077Z,38.40
2019-03-22T05:24:00.806Z,40.57
2019-03-22T05:26:33.906Z,40.93
2019-03-22T05:29:05.127Z,38.80
2019-03-22T05:31:59.495Z,40.87
2019-03-22T05:34:28.798Z,40.70
2019-03-22T05:36:57.741Z,41.33
2019-03-22T05:39:26.649Z,40.50
2019-03-22T05:41:55.537Z,40.90
2019-03-22T05:44:24.499Z,40.33
2019-03-22T05:46:53.473Z,42.43
2019-03-22T05:49:22.431Z,41.70
2019-03-22T05:51:51.392Z,41.90
2019-03-22T05:54:20.325Z,40.43
2019-03-22T05:56:49.280Z,42.07
2019-03-22T05:59:18.304Z,42.90
2019-03-22T06:01:47.497Z,42.50
2019-03-22T06:04:16.422Z,42.53
2019-03-22T06:06:45.419Z,44.10
2019-03-22T06:09:14.784Z,41.83
2019-03-22T06:11:43.737Z,43.53
2019-03-22T06:14:12.645Z,41.87
2019-03-22T06:16:41.544Z,41.53
2019-03-22T06:19:10.470Z,43.97
2019-03-22T06:21:39.573Z,43.97
2019-03-22T06:24:08.875Z,41.63
2019-03-22T06:26:37.741Z,43.80
2019-03-22T06:29:06.607Z,40.90
2019-03-22T06:31:35.561Z,40.53
2019-03-22T06:34:04.608Z,41.50
2019-03-22T06:36:34.074Z,38.80
2019-03-22T06:39:05.184Z,37.00
2019-03-22T06:41:34.325Z,34.90
2019-03-22T06:44:04.537Z,35.80
2019-03-22T06:46:33.488Z,34.10
2019-03-22T06:49:03.339Z,37.07
2019-03-22T06:51:32.663Z,38.53
2019-03-22T06:54:01.557Z,37.70
2019-03-22T06:56:30.627Z,40.03
2019-03-22T06:59:01.155Z,36.63
2019-03-22T07:01:30.080Z,38.70
2019-03-22T07:03:59.052Z,41.67
2019-03-22T07:06:27.973Z,36.63
2019-03-22T07:08:56.829Z,38.70
2019-03-22T07:11:26.082Z,37.00
2019-03-22T07:13:55.099Z,34.63
2019-03-22T07:16:24.140Z,36.17
2019-03-22T07:18:53.116Z,37.00
2019-03-22T07:21:22.211Z,36.00
2019-03-22T07:23:51.213Z,36.43
2019-03-22T07:26:20.277Z,34.87
2019-03-22T07:28:49.185Z,37.17
2019-03-22T07:31:18.225Z,33.80
2019-03-22T07:33:47.201Z,36.03
2019-03-22T07:36:16.274Z,34.87
2019-03-22T07:38:45.161Z,36.77
2019-03-22T07:41:14.135Z,34.10
2019-03-22T07:43:43.052Z,36.97
2019-03-22T07:46:12.182Z,36.30
2019-03-22T07:48:41.299Z,36.57
2019-03-22T07:51:10.235Z,37.30
2019-03-22T07:53:39.190Z,35.23
2019-03-22T07:56:08.219Z,36.00
2019-03-22T07:58:37.201Z,35.50
2019-03-22T08:01:06.244Z,34.27
2019-03-22T08:03:35.386Z,36.07
2019-03-22T08:06:04.703Z,34.10
2019-03-22T08:08:33.784Z,36.30
2019-03-22T08:11:03.155Z,38.30
2019-03-22T08:13:32.158Z,36.90
2019-03-22T08:16:01.198Z,37.23
2019-03-22T08:18:30.795Z,34.07
2019-03-22T08:20:59.958Z,35.10
2019-03-22T08:23:29.030Z,36.20
2019-03-22T08:25:57.983Z,37.07
2019-03-22T08:28:26.944Z,35.67
2019-03-22T08:30:55.934Z,36.43
2019-03-22T08:33:24.911Z,35.97
2019-03-22T08:35:53.839Z,36.10
2019-03-22T08:38:22.905Z,33.83
2019-03-22T08:40:51.860Z,39.17
2019-03-22T08:43:20.838Z,37.10
2019-03-22T08:45:49.977Z,37.13
2019-03-22T08:48:19.111Z,36.30
2019-03-22T08:50:48.562Z,36.63
2019-03-22T08:53:17.792Z,36.70
2019-03-22T08:55:47.059Z,35.80
2019-03-22T08:58:18.591Z,36.67
2019-03-22T09:00:57.517Z,38.50
2019-03-22T09:03:17.916Z,37.70
2019-03-22T09:05:46.891Z,35.70
2019-03-22T09:08:16.181Z,37.20
2019-03-22T09:10:45.334Z,34.77
2019-03-22T09:13:14.223Z,33.83
2019-03-22T09:15:43.271Z,35.43
2019-03-22T09:18:14.188Z,33.90
2019-03-22T09:20:43.071Z,34.60
2019-03-22T09:23:12.059Z,33.20
2019-03-22T09:25:41.182Z,33.97
2019-03-22T09:28:10.559Z,35.77
2019-03-22T09:30:39.746Z,34.47
2019-03-22T09:33:08.938Z,33.93
2019-03-22T09:35:38.171Z,35.57
2019-03-22T09:38:13.241Z,33.23
2019-03-22T09:40:38.851Z,35.17
2019-03-22T09:43:08.225Z,35.50
2019-03-22T09:45:37.381Z,34.77
2019-03-22T09:48:06.746Z,34.50
2019-03-22T09:50:35.770Z,35.60
2019-03-22T09:53:04.883Z,38.20
2019-03-22T09:55:33.763Z,35.83
2019-03-22T09:58:02.899Z,36.87
2019-03-22T10:00:33.619Z,37.40
2019-03-22T10:03:04.923Z,37.90
2019-03-22T10:05:33.925Z,35.77
2019-03-22T10:08:04.730Z,36.57
2019-03-22T10:10:34.517Z,38.33
2019-03-22T10:13:03.766Z,37.70
2019-03-22T10:15:34.123Z,38.30
2019-03-22T10:18:03.835Z,35.00
2019-03-22T10:20:32.920Z,35.90
2019-03-22T10:23:02.632Z,36.37
2019-03-22T10:25:31.571Z,34.60
2019-03-22T10:28:00.462Z,38.37
2019-03-22T10:30:29.985Z,37.37
2019-03-22T10:32:58.970Z,37.73
2019-03-22T10:35:29.406Z,38.47
2019-03-22T10:38:00.881Z,36.57
2019-03-22T10:40:29.602Z,36.77
2019-03-22T10:42:58.622Z,38.50
2019-03-22T10:45:27.938Z,38.23
2019-03-22T10:47:56.823Z,39.20
2019-03-22T10:50:25.719Z,37.77
2019-03-22T10:52:56.113Z,39.07
2019-03-22T10:55:30.218Z,37.73
2019-03-22T10:57:55.974Z,37.93
2019-03-22T11:00:24.947Z,39.40
2019-03-22T11:02:54.282Z,38.00
2019-03-22T11:05:23.257Z,37.60
2019-03-22T11:07:52.201Z,38.20
2019-03-22T11:10:21.736Z,38.00
2019-03-22T11:12:51.351Z,37.63
2019-03-22T11:15:20.255Z,36.37
2019-03-22T11:17:49.314Z,36.40
2019-03-22T11:20:18.304Z,35.77
2019-03-22T11:22:47.245Z,37.83
2019-03-22T11:25:16.143Z,37.57
2019-03-22T11:27:45.089Z,37.73
2019-03-22T11:30:17.641Z,36.53
2019-03-22T11:32:47.792Z,35.13
2019-03-22T11:35:16.828Z,36.00
2019-03-22T11:37:46.058Z,35.30
2019-03-22T11:40:16.693Z,35.63
2019-03-22T11:42:45.546Z,34.43
2019-03-22T11:45:17.679Z,34.03
2019-03-22T11:47:46.905Z,35.43
2019-03-22T11:50:16.125Z,33.60
2019-03-22T11:52:45.072Z,35.10
2019-03-22T11:55:14.237Z,35.27
2019-03-22T11:57:43.115Z,34.67
2019-03-22T12:00:18.393Z,34.43
2019-03-22T12:02:49.138Z,32.20
2019-03-22T12:05:20.196Z,31.03
2019-03-22T12:07:49.584Z,30.73
2019-03-22T12:10:19.783Z,29.50
2019-03-22T12:12:49.143Z,28.83
2019-03-22T12:15:22.924Z,28.77
2019-03-22T12:17:51.918Z,29.47
2019-03-22T12:20:21.518Z,28.57
2019-03-22T12:22:50.716Z,29.33
2019-03-22T12:25:20.212Z,30.83
2019-03-22T12:27:49.100Z,28.63
2019-03-22T12:30:18.316Z,29.80
2019-03-22T12:32:47.362Z,29.03
2019-03-22T12:35:17.587Z,28.93
2019-03-22T12:37:46.591Z,28.70
2019-03-22T12:40:16.855Z,27.10
2019-03-22T12:42:45.834Z,25.10
2019-03-22T12:45:19.751Z,24.87
2019-03-22T12:47:49.050Z,26.40
2019-03-22T12:50:18.379Z,26.40
2019-03-22T12:52:47.343Z,25.10
2019-03-22T12:55:16.464Z,23.23
2019-03-22T12:57:46.113Z,27.07
2019-03-22T13:00:18.553Z,23.47
2019-03-22T13:02:47.761Z,22.63
2019-03-22T13:05:17.641Z,20.43
2019-03-22T13:07:46.857Z,22.53
2019-03-22T13:10:17.819Z,22.50
2019-03-22T13:12:46.809Z,21.13
2019-03-22T13:15:15.738Z,19.70
2019-03-22T13:17:44.847Z,22.63
2019-03-22T13:20:14.592Z,21.17
2019-03-22T13:22:43.683Z,21.83
2019-03-22T13:25:14.233Z,20.37
2019-03-22T13:27:44.818Z,20.67
2019-03-22T13:30:30.291Z,21.10
2019-03-22T13:32:59.296Z,19.70
2019-03-22T13:35:28.456Z,21.10
2019-03-22T13:37:57.370Z,20.50
2019-03-22T13:40:26.664Z,19.47
2019-03-22T13:42:55.591Z,20.93
2019-03-22T13:45:25.105Z,19.77
2019-03-22T13:47:54.034Z,18.37
2019-03-22T13:50:23.625Z,18.40
2019-03-22T13:52:52.528Z,17.17
2019-03-22T13:55:21.768Z,15.17
2019-03-22T13:57:50.677Z,15.10
2019-03-22T14:00:19.900Z,16.10
2019-03-22T14:02:50.020Z,19.23
2019-03-22T14:05:18.942Z,19.93
2019-03-22T14:07:48.970Z,18.97
2019-03-22T14:10:31.148Z,18.70
2019-03-22T14:13:01.272Z,15.03
2019-03-22T14:15:30.233Z,20.30
2019-03-22T14:17:59.174Z,15.57
2019-03-22T14:20:28.487Z,15.60
2019-03-22T14:22:57.611Z,19.67
2019-03-22T14:25:26.780Z,16.33
2019-03-22T14:27:55.744Z,16.97
2019-03-22T14:30:24.717Z,17.77
2019-03-22T14:32:54.167Z,18.20
2019-03-22T14:35:23.054Z,16.27
2019-03-22T14:37:51.952Z,18.10
2019-03-22T14:40:20.928Z,19.57
2019-03-22T14:42:50.121Z,17.03
2019-03-22T14:45:19.145Z,23.23
2019-03-22T14:47:48.426Z,21.43
2019-03-22T14:50:17.500Z,22.03
2019-03-22T14:52:46.391Z,17.50
2019-03-22T14:55:15.474Z,17.43
2019-03-22T14:57:49.250Z,18.20
2019-03-22T15:00:15.211Z,19.47
2019-03-22T15:02:44.174Z,19.50
2019-03-22T15:05:13.205Z,20.73
2019-03-22T15:07:42.105Z,19.70
2019-03-22T15:10:11.531Z,19.93
2019-03-22T15:12:40.524Z,19.70
2019-03-22T15:15:47.774Z,20.33
2019-03-22T15:18:36.219Z,20.40
2019-03-22T15:21:24.667Z,21.03
2019-03-22T15:24:13.448Z,20.57
2019-03-22T15:26:55.836Z,22.13
2019-03-22T15:29:47.332Z,21.03
2019-03-22T15:32:34.526Z,22.77
2019-03-22T15:38:13.302Z,22.57
2019-03-22T15:40:42.763Z,19.53
2019-03-22T15:43:11.681Z,20.00
2019-03-22T15:45:40.901Z,21.50
2019-03-22T15:48:10.111Z,20.63
2019-03-22T15:50:41.020Z,21.50
2019-03-22T15:53:09.966Z,22.47
2019-03-22T15:55:38.851Z,20.67
2019-03-22T15:58:08.002Z,20.20
2019-03-22T16:00:37.382Z,18.90
2019-03-22T16:03:06.279Z,21.10
2019-03-22T16:05:35.212Z,20.30
2019-03-22T16:08:04.148Z,18.77
2019-03-22T16:10:33.116Z,19.40
2019-03-22T16:13:02.222Z,19.60
2019-03-22T16:15:31.158Z,19.30
2019-03-22T16:18:00.051Z,18.90
2019-03-22T16:20:28.969Z,18.87
2019-03-22T16:22:57.834Z,17.60
2019-03-22T16:25:26.891Z,18.57
2019-03-22T16:27:56.058Z,17.17
2019-03-22T16:30:24.978Z,18.33
2019-03-22T16:32:53.847Z,17.73
2019-03-22T16:35:22.793Z,18.00
2019-03-22T16:37:51.727Z,18.17
2019-03-22T16:40:24.390Z,17.47
2019-03-22T16:42:51.527Z,17.57
2019-03-22T16:45:38.733Z,17.47
2019-03-22T16:48:07.774Z,17.23
2019-03-22T16:50:36.663Z,16.43
2019-03-22T16:53:05.747Z,16.50
2019-03-22T16:55:34.637Z,15.90
2019-03-22T16:58:04.612Z,17.90
2019-03-22T17:00:33.596Z,17.90
2019-03-22T17:03:02.792Z,18.60
2019-03-22T17:05:32.153Z,17.80
2019-03-22T17:08:01.289Z,16.73
2019-03-22T17:10:30.307Z,17.43
2019-03-22T17:12:59.328Z,18.10
2019-03-22T17:15:28.299Z,18.13
2019-03-22T17:17:57.218Z,18.07
2019-03-22T17:20:26.637Z,18.27
2019-03-22T17:22:55.869Z,16.33
2019-03-22T17:25:24.775Z,17.53
2019-03-22T17:27:53.920Z,16.87
2019-03-22T17:30:22.816Z,17.17
2019-03-22T17:32:51.753Z,16.90
2019-03-22T17:35:20.866Z,16.93
2019-03-22T17:37:49.860Z,16.17
2019-03-22T17:40:18.756Z,16.70
2019-03-22T17:42:47.660Z,17.53
2019-03-22T17:45:17.595Z,16.47
2019-03-22T17:47:46.626Z,16.80
2019-03-22T17:50:16.091Z,16.63
2019-03-22T17:52:45.043Z,17.93
2019-03-22T17:55:14.559Z,16.30
2019-03-22T17:57:43.498Z,17.17
2019-03-22T18:00:14.241Z,15.33
2019-03-22T18:02:43.760Z,16.43
2019-03-22T18:05:12.796Z,19.53
2019-03-22T18:07:41.658Z,18.27
2019-03-22T18:10:11.188Z,20.83
2019-03-22T18:12:40.142Z,19.53
2019-03-22T18:15:10.249Z,19.60
2019-03-22T18:17:39.198Z,17.60
2019-03-22T18:20:09.565Z,17.97
2019-03-22T18:22:39.445Z,16.60
2019-03-22T18:25:09.422Z,19.07
2019-03-22T18:27:38.398Z,17.37
2019-03-22T18:30:08.502Z,17.90
2019-03-22T18:32:38.219Z,18.00
2019-03-22T18:35:07.302Z,18.33
2019-03-22T18:37:36.210Z,19.13
2019-03-22T18:40:06.200Z,20.33
2019-03-22T18:42:35.255Z,17.30
2019-03-22T18:45:07.434Z,19.63
2019-03-22T18:47:37.188Z,19.43
2019-03-22T18:50:06.925Z,20.27
2019-03-22T18:52:35.981Z,18.33
2019-03-22T18:55:05.516Z,21.93
2019-03-22T18:57:34.421Z,20.63
2019-03-22T19:00:05.109Z,22.63
2019-03-22T19:02:34.122Z,21.57
2019-03-22T19:05:03.500Z,21.67
2019-03-22T19:07:32.424Z,21.93
2019-03-22T19:10:01.430Z,22.60
2019-03-22T19:12:30.692Z,21.63
2019-03-22T19:14:59.597Z,23.97
2019-03-22T19:17:28.542Z,21.23
2019-03-22T19:19:57.590Z,21.93
2019-03-22T19:22:27.270Z,21.83
2019-03-22T19:24:56.298Z,22.63
2019-03-22T19:27:25.222Z,24.70
2019-03-22T19:29:54.920Z,25.07
2019-03-22T19:32:23.833Z,24.87
2019-03-22T19:34:54.597Z,24.63
2019-03-22T19:37:23.697Z,25.30
2019-03-22T19:39:52.745Z,25.27
2019-03-22T19:42:21.645Z,25.20
2019-03-22T19:44:50.844Z,24.60
2019-03-22T19:47:19.728Z,25.50
2019-03-22T19:49:48.826Z,26.13
2019-03-22T19:52:17.855Z,25.10
2019-03-22T19:54:46.806Z,26.23
2019-03-22T19:57:15.769Z,23.77
2019-03-22T19:59:45.370Z,26.20
2019-03-22T20:02:14.442Z,25.50
2019-03-22T20:04:43.341Z,27.43
2019-03-22T20:07:12.527Z,25.03
2019-03-22T20:09:41.449Z,26.83
2019-03-22T20:12:10.322Z,26.00
2019-03-22T20:14:40.897Z,28.53
2019-03-22T20:17:09.930Z,28.20
2019-03-22T20:19:38.840Z,26.67
2019-03-22T20:22:07.807Z,27.20
2019-03-22T20:24:36.982Z,26.93
2019-03-22T20:27:05.943Z,27.60
2019-03-22T20:29:35.387Z,27.40
2019-03-22T20:32:04.407Z,29.23
2019-03-22T20:34:33.442Z,27.87
2019-03-22T20:37:03.348Z,26.70
2019-03-22T20:39:32.369Z,29.03
2019-03-22T20:42:01.392Z,29.33
2019-03-22T20:44:34.026Z,28.60
2019-03-22T20:47:01.367Z,26.73
2019-03-22T20:49:30.319Z,26.67
2019-03-22T20:51:59.220Z,29.17
2019-03-22T20:54:28.263Z,28.30
2019-03-22T20:56:57.168Z,29.33
2019-03-22T20:59:26.781Z,28.67
2019-03-22T21:01:56.049Z,29.67
2019-03-22T21:04:24.992Z,31.43
2019-03-22T21:06:53.974Z,28.07
2019-03-22T21:09:23.043Z,29.30
2019-03-22T21:11:52.078Z,28.93
2019-03-22T21:14:21.331Z,31.17
2019-03-22T21:16:50.389Z,32.10
2019-03-22T21:19:19.403Z,32.27
2019-03-22T21:21:48.284Z,34.43
2019-03-22T21:24:17.279Z,34.70
2019-03-22T21:26:46.494Z,35.57
2019-03-22T21:29:15.487Z,35.30
2019-03-22T21:31:44.369Z,34.33
2019-03-22T21:34:13.372Z,34.17
2019-03-22T21:36:42.291Z,33.93
2019-03-22T21:39:11.171Z,36.63
2019-03-22T21:41:40.140Z,33.87
2019-03-22T21:44:09.056Z,35.53
2019-03-22T21:46:37.980Z,33.90
2019-03-22T21:49:06.850Z,35.00
2019-03-22T21:51:35.807Z,35.60
2019-03-22T21:54:04.874Z,34.80
2019-03-22T21:56:33.803Z,34.07
2019-03-22T21:59:02.712Z,33.93
2019-03-22T22:01:31.825Z,34.67
2019-03-22T22:04:00.851Z,33.80
2019-03-22T22:06:29.821Z,31.67
2019-03-22T22:08:59.033Z,32.43
2019-03-22T22:11:27.942Z,31.77
2019-03-22T22:13:56.947Z,31.07
2019-03-22T22:16:25.976Z,33.07
2019-03-22T22:18:54.897Z,34.10
2019-03-22T22:21:24.118Z,32.43
2019-03-22T22:23:53.038Z,31.73
2019-03-22T22:26:22.045Z,34.20
2019-03-22T22:28:50.946Z,33.27
2019-03-22T22:31:20.000Z,34.53
2019-03-22T22:33:48.992Z,34.33
2019-03-22T22:36:18.031Z,33.00
2019-03-22T22:38:46.912Z,33.50
2019-03-22T22:41:15.844Z,33.47
2019-03-22T22:43:44.958Z,33.43
2019-03-22T22:46:14.141Z,32.97
2019-03-22T22:48:43.066Z,33.23
2019-03-22T22:51:12.060Z,31.47
2019-03-22T22:53:41.097Z,32.80
2019-03-22T22:56:10.038Z,30.73
2019-03-22T22:58:39.156Z,29.87
2019-03-22T23:01:08.229Z,30.00
2019-03-22T23:03:37.091Z,29.73
2019-03-22T23:06:09.750Z,29.27
2019-03-22T23:08:36.982Z,29.40
2019-03-22T23:11:05.986Z,31.73
2019-03-22T23:13:34.983Z,30.57
2019-03-22T23:16:03.927Z,30.50
2019-03-22T23:18:32.885Z,31.07
2019-03-22T23:21:02.349Z,30.93
2019-03-22T23:23:34.590Z,30.83
2019-03-22T23:26:04.369Z,30.33
2019-03-22T23:28:33.301Z,30.97
2019-03-22T23:31:02.290Z,31.57
2019-03-22T23:33:31.303Z,31.27
2019-03-22T23:36:00.305Z,32.73
2019-03-22T23:38:29.253Z,32.40
2019-03-22T23:40:58.218Z,31.37
2019-03-22T23:43:27.178Z,31.80
2019-03-22T23:45:56.102Z,30.30
2019-03-22T23:48:25.117Z,29.83
2019-03-22T23:50:53.969Z,30.73
2019-03-22T23:53:22.865Z,30.20
2019-03-22T23:55:53.330Z,32.43
2019-03-22T23:58:22.308Z,32.70
